RJAT(METAR)
03/23 14:00
METAR RJAT 230500Z 20004KT 9999 FEW015 BKN030 BKN100 09/M03 Q1014
RMK 2CU015 5CU030 5AC100 A2995=
戻る
トップページへ戻る
IMOC Co,.Ltd.